createdAt,value
2019-01-09T00:01:56.113Z,44.52
2019-01-09T00:07:51.146Z,40.38
2019-01-09T00:13:46.123Z,42.53
2019-01-09T00:19:41.117Z,31.82
2019-01-09T00:25:36.149Z,36.5
2019-01-09T00:31:31.117Z,35.72
2019-01-09T00:37:26.129Z,31.43
2019-01-09T00:43:21.171Z,32.98
2019-01-09T00:49:16.131Z,30.88
2019-01-09T00:55:11.157Z,37.74
2019-01-09T01:01:06.148Z,45.94
2019-01-09T01:07:01.187Z,46.93
2019-01-09T01:12:56.165Z,78.66
2019-01-09T01:18:51.167Z,59.66
2019-01-09T01:24:46.206Z,110.65
2019-01-09T01:30:41.197Z,80.55
2019-01-09T01:36:36.191Z,50.55
2019-01-09T01:42:31.198Z,39.82
2019-01-09T01:48:26.188Z,31.22
2019-01-09T01:54:21.182Z,33.47
2019-01-09T02:00:16.181Z,38.87
2019-01-09T02:06:11.171Z,52.15
2019-01-09T02:12:06.188Z,50.53
2019-01-09T02:18:01.227Z,62.84
2019-01-09T02:23:56.212Z,51.73
2019-01-09T02:29:51.177Z,49.41
2019-01-09T02:35:46.169Z,49.67
2019-01-09T02:41:41.202Z,42.02
2019-01-09T02:47:36.197Z,38.07
2019-01-09T02:53:31.178Z,51.36
2019-01-09T02:59:26.198Z,41.14
2019-01-09T03:05:21.231Z,43.03
2019-01-09T03:11:16.214Z,46.64
2019-01-09T03:17:11.220Z,54.56
2019-01-09T03:23:06.256Z,40.61
2019-01-09T03:29:01.239Z,39.24
2019-01-09T03:34:56.248Z,37.43
2019-01-09T03:40:51.321Z,40.32
2019-01-09T03:46:46.217Z,33.57
2019-01-09T03:52:41.213Z,39.12
2019-01-09T03:58:36.214Z,49.36
2019-01-09T04:04:31.262Z,45.64
2019-01-09T04:10:26.230Z,31.35
2019-01-09T04:16:21.263Z,36.73
2019-01-09T04:22:16.230Z,44.81
2019-01-09T04:28:11.255Z,81.18
2019-01-09T04:34:06.262Z,66.2
2019-01-09T04:40:01.264Z,47.42
2019-01-09T04:45:56.269Z,60.07
2019-01-09T04:51:51.251Z,72.05
2019-01-09T04:57:46.283Z,74.8
2019-01-09T05:03:41.310Z,98.72
2019-01-09T05:09:36.267Z,77.17
2019-01-09T05:15:31.266Z,71.49
2019-01-09T05:21:26.288Z,67.8
2019-01-09T05:27:21.284Z,78.8
2019-01-09T05:33:16.268Z,104.92
2019-01-09T05:39:11.278Z,146.72
2019-01-09T05:45:06.284Z,219.81
2019-01-09T05:51:01.291Z,143.34
2019-01-09T05:56:56.281Z,111.39
2019-01-09T06:02:51.314Z,92.28
2019-01-09T06:08:46.275Z,67.36
2019-01-09T06:14:41.295Z,49.66
2019-01-09T06:20:36.320Z,42.26
2019-01-09T06:26:31.350Z,44.92
2019-01-09T06:32:26.318Z,28.47
2019-01-09T06:38:21.307Z,64.04
2019-01-09T06:44:16.306Z,71.65
2019-01-09T06:50:11.294Z,104.87
2019-01-09T06:56:06.313Z,156.21
2019-01-09T07:02:01.387Z,163.88
2019-01-09T07:07:56.320Z,207.1
2019-01-09T07:13:51.321Z,154.61
2019-01-09T07:19:46.337Z,135.4
2019-01-09T07:25:41.330Z,151.12
2019-01-09T07:31:36.312Z,166.09
2019-01-09T07:37:31.373Z,159.07
2019-01-09T07:43:26.332Z,167.16
2019-01-09T07:49:21.344Z,174.24
2019-01-09T07:55:16.355Z,168.09
2019-01-09T08:01:11.355Z,182.71
2019-01-09T08:07:06.340Z,175.12
2019-01-09T08:13:01.391Z,170.42
2019-01-09T08:18:56.363Z,182.13
2019-01-09T08:24:51.396Z,188.12
2019-01-09T08:30:46.421Z,176.17
2019-01-09T08:36:41.381Z,204.42
2019-01-09T08:42:36.399Z,190.01
2019-01-09T08:48:31.379Z,197.62
2019-01-09T08:54:26.377Z,195.47
2019-01-09T09:00:21.415Z,203.3
2019-01-09T09:06:16.397Z,197.24
2019-01-09T09:12:11.375Z,181.03
2019-01-09T09:18:06.392Z,190.94
2019-01-09T09:24:01.370Z,194.7
2019-01-09T09:29:56.396Z,172.74
2019-01-09T09:35:51.428Z,176.72
2019-01-09T09:41:46.431Z,170.19
2019-01-09T09:47:41.414Z,181.11
2019-01-09T09:53:36.452Z,174.52
2019-01-09T09:59:31.468Z,160.9
2019-01-09T10:05:26.410Z,173.28
2019-01-09T10:11:21.422Z,176.86
2019-01-09T10:17:16.441Z,181.68
2019-01-09T10:23:11.419Z,196.37
2019-01-09T10:29:06.416Z,185.27
2019-01-09T10:35:01.427Z,176.48
2019-01-09T10:40:56.460Z,185.76
2019-01-09T10:46:51.440Z,200.43
2019-01-09T10:52:46.445Z,232.83
2019-01-09T10:58:41.423Z,214.62
2019-01-09T11:04:36.439Z,259.32
2019-01-09T11:10:31.443Z,256.16
2019-01-09T11:16:26.434Z,227.37
2019-01-09T11:22:21.464Z,231.5
2019-01-09T11:28:16.479Z,243.59
2019-01-09T11:34:11.445Z,219.61
2019-01-09T11:40:06.514Z,237.41
2019-01-09T11:46:01.438Z,244.23
2019-01-09T11:51:56.449Z,255.98
2019-01-09T11:57:51.495Z,248.48
2019-01-09T12:03:46.489Z,251.2
2019-01-09T12:09:41.464Z,243.87
2019-01-09T12:15:36.497Z,266.52
2019-01-09T12:21:31.525Z,238.87
2019-01-09T12:27:26.487Z,203.41
2019-01-09T12:33:21.509Z,149.46
2019-01-09T12:39:16.472Z,82.52
2019-01-09T12:45:11.506Z,183.37
2019-01-09T12:51:06.489Z,209.53
2019-01-09T12:57:01.499Z,206.47
2019-01-09T13:02:56.510Z,187.38
2019-01-09T13:08:51.503Z,168.97
2019-01-09T13:14:46.506Z,133.6
2019-01-09T13:20:41.501Z,3.42
2019-01-09T13:26:36.533Z,3.27
2019-01-09T13:32:31.521Z,124.52
2019-01-09T13:38:26.530Z,1.9
2019-01-09T13:44:21.530Z,1.76
2019-01-09T13:50:16.527Z,1.78
2019-01-09T13:56:11.525Z,1.62
2019-01-09T14:02:06.543Z,1.91
2019-01-09T14:08:01.530Z,1.88
2019-01-09T14:13:56.535Z,2.27
2019-01-09T14:19:51.543Z,2.82
2019-01-09T14:25:46.538Z,2.02
2019-01-09T14:31:41.550Z,2.06
2019-01-09T14:37:36.552Z,1.76
2019-01-09T14:43:31.573Z,1.94
2019-01-09T14:49:26.555Z,2.15
2019-01-09T14:55:21.551Z,2.4
2019-01-09T15:01:16.579Z,2.6
2019-01-09T15:07:11.580Z,3.86
2019-01-09T15:13:06.578Z,2.98
2019-01-09T15:19:01.596Z,2.93
2019-01-09T15:24:56.562Z,2.36
2019-01-09T15:30:51.573Z,5.27
2019-01-09T15:36:46.580Z,3.52
2019-01-09T15:42:41.656Z,3.33
2019-01-09T15:48:36.615Z,2.84
2019-01-09T15:54:31.644Z,3.31
2019-01-09T16:00:26.612Z,3.59
2019-01-09T16:06:21.598Z,2.82
2019-01-09T16:12:16.608Z,3.1
2019-01-09T16:18:11.609Z,2.66
2019-01-09T16:24:06.607Z,2.33
2019-01-09T16:30:01.628Z,5.37
2019-01-09T16:35:56.600Z,3.65
2019-01-09T16:41:51.622Z,5.79
2019-01-09T16:47:46.607Z,5.49
2019-01-09T16:53:41.634Z,3.19
2019-01-09T16:59:36.642Z,5.03
2019-01-09T17:05:31.667Z,1.86
2019-01-09T17:11:26.691Z,2.17
2019-01-09T17:17:21.666Z,2.09
2019-01-09T17:23:16.667Z,2.53
2019-01-09T17:29:11.681Z,1.85
2019-01-09T17:35:06.718Z,2.4
2019-01-09T17:41:01.685Z,1.89
2019-01-09T17:46:56.709Z,1.65
2019-01-09T17:52:51.736Z,3.89
2019-01-09T17:58:46.659Z,2.89
2019-01-09T18:04:41.694Z,2.95
2019-01-09T18:10:36.719Z,2.5
2019-01-09T18:16:31.834Z,2.98
2019-01-09T18:22:26.670Z,1.71
2019-01-09T18:28:21.675Z,2.25
2019-01-09T18:34:16.693Z,3.95
2019-01-09T18:40:11.708Z,2.27
2019-01-09T18:46:06.698Z,1.84
2019-01-09T18:52:01.677Z,2.55
2019-01-09T18:57:56.704Z,3.46
2019-01-09T19:03:51.700Z,2.32
2019-01-09T19:09:46.772Z,1.94
2019-01-09T19:15:41.733Z,5.88
2019-01-09T19:21:36.716Z,2.63
2019-01-09T19:27:31.730Z,3.19
2019-01-09T19:33:26.764Z,3.34
2019-01-09T19:39:21.732Z,1.95
2019-01-09T19:45:16.729Z,2.92
2019-01-09T19:51:17.258Z,2.8
2019-01-09T19:57:06.785Z,3.42
2019-01-09T20:03:01.780Z,4.27
2019-01-09T20:08:56.772Z,4.11
2019-01-09T20:14:51.760Z,3.76
2019-01-09T20:20:46.736Z,4.2
2019-01-09T20:26:41.764Z,2.87
2019-01-09T20:32:36.754Z,4.01
2019-01-09T20:38:31.847Z,2.82
2019-01-09T20:44:26.754Z,4.99
2019-01-09T20:50:21.750Z,3.89
2019-01-09T20:56:16.833Z,2.81
2019-01-09T21:02:11.821Z,4.46
2019-01-09T21:08:06.821Z,3.49
2019-01-09T21:14:01.773Z,5.36
2019-01-09T21:19:56.789Z,3.95
2019-01-09T21:25:51.809Z,11.85
2019-01-09T21:31:46.804Z,7.81
2019-01-09T21:37:41.774Z,9.04
2019-01-09T21:43:36.773Z,5.42
2019-01-09T21:49:31.792Z,7.66
2019-01-09T21:55:26.792Z,6.24
2019-01-09T22:01:21.788Z,4.82
2019-01-09T22:07:16.801Z,8.2
2019-01-09T22:13:11.805Z,6.32
2019-01-09T22:19:11.828Z,8.09
2019-01-09T22:25:01.837Z,5.47
2019-01-09T22:30:56.831Z,3.76
2019-01-09T22:36:51.852Z,6.2
2019-01-09T22:42:46.845Z,5.65
2019-01-09T22:48:41.856Z,4.98
2019-01-09T22:54:38.955Z,5
2019-01-09T23:00:31.869Z,7.75
2019-01-09T23:06:26.836Z,3.57
2019-01-09T23:12:21.843Z,4.56
2019-01-09T23:18:16.827Z,3.88
2019-01-09T23:24:11.806Z,5.5
2019-01-09T23:30:06.853Z,6
2019-01-09T23:36:01.858Z,4.93
2019-01-09T23:41:56.822Z,5.71
2019-01-09T23:47:51.850Z,5.67
2019-01-09T23:53:46.858Z,4.43
2019-01-09T23:59:41.863Z,6.08
